sensor_id;sensor_type;location;lat;lon;timestamp;pressure;altitude;pressure_sealevel;temperature;humidity
23363;BME280;11853;48.080;11.960;2022-11-24T00:01:08;94011.13;;;6.64;100.00
23363;BME280;11853;48.080;11.960;2022-11-24T00:03:35;94011.28;;;6.62;100.00
23363;BME280;11853;48.080;11.960;2022-11-24T00:06:05;94015.34;;;6.57;100.00
23363;BME280;11853;48.080;11.960;2022-11-24T00:08:32;94015.50;;;6.55;100.00
23363;BME280;11853;48.080;11.960;2022-11-24T00:11:06;94017.78;;;6.68;100.00
23363;BME280;11853;48.080;11.960;2022-11-24T00:13:32;94026.06;;;6.73;100.00
23363;BME280;11853;48.080;11.960;2022-11-24T00:18:33;94025.00;;;6.66;100.00
23363;BME280;11853;48.080;11.960;2022-11-24T00:20:59;94033.28;;;6.71;100.00
23363;BME280;11853;48.080;11.960;2022-11-24T00:23:24;94036.59;;;6.73;100.00
23363;BME280;11853;48.080;11.960;2022-11-24T00:25:51;94044.03;;;6.77;100.00
23363;BME280;11853;48.080;11.960;2022-11-24T00:28:16;94038.03;;;6.67;100.00
23363;BME280;11853;48.080;11.960;2022-11-24T00:30:42;94036.22;;;6.68;100.00
23363;BME280;11853;48.080;11.960;2022-11-24T00:33:07;94047.06;;;6.65;100.00
23363;BME280;11853;48.080;11.960;2022-11-24T00:35:33;94045.47;;;6.72;100.00
23363;BME280;11853;48.080;11.960;2022-11-24T00:37:58;94049.91;;;6.71;100.00
23363;BME280;11853;48.080;11.960;2022-11-24T00:40:24;94051.72;;;6.71;100.00
23363;BME280;11853;48.080;11.960;2022-11-24T00:42:50;94045.78;;;6.69;100.00
23363;BME280;11853;48.080;11.960;2022-11-24T00:45:15;94056.31;;;6.69;100.00
23363;BME280;11853;48.080;11.960;2022-11-24T00:47:41;94062.56;;;6.68;100.00
23363;BME280;11853;48.080;11.960;2022-11-24T00:50:06;94067.44;;;6.63;100.00
23363;BME280;11853;48.080;11.960;2022-11-24T00:52:32;94074.75;;;6.69;100.00
23363;BME280;11853;48.080;11.960;2022-11-24T00:54:58;94070.03;;;6.72;100.00
23363;BME280;11853;48.080;11.960;2022-11-24T00:57:23;94072.22;;;6.77;100.00
23363;BME280;11853;48.080;11.960;2022-11-24T00:59:49;94082.63;;;6.79;100.00
23363;BME280;11853;48.080;11.960;2022-11-24T01:02:14;94092.63;;;6.75;100.00
23363;BME280;11853;48.080;11.960;2022-11-24T01:04:40;94099.56;;;6.76;100.00
23363;BME280;11853;48.080;11.960;2022-11-24T01:07:05;94107.06;;;6.71;100.00
23363;BME280;11853;48.080;11.960;2022-11-24T01:09:31;94106.47;;;6.77;100.00
23363;BME280;11853;48.080;11.960;2022-11-24T01:11:56;94122.00;;;6.80;100.00
23363;BME280;11853;48.080;11.960;2022-11-24T01:14:25;94112.56;;;6.77;100.00
23363;BME280;11853;48.080;11.960;2022-11-24T01:16:51;94124.25;;;6.75;100.00
23363;BME280;11853;48.080;11.960;2022-11-24T01:19:17;94128.41;;;6.77;100.00
23363;BME280;11853;48.080;11.960;2022-11-24T01:21:43;94129.78;;;6.82;100.00
23363;BME280;11853;48.080;11.960;2022-11-24T01:24:09;94136.56;;;6.84;100.00
23363;BME280;11853;48.080;11.960;2022-11-24T01:26:35;94134.59;;;6.86;100.00
23363;BME280;11853;48.080;11.960;2022-11-24T01:29:00;94136.84;;;6.81;100.00
23363;BME280;11853;48.080;11.960;2022-11-24T01:31:26;94148.34;;;6.80;100.00
23363;BME280;11853;48.080;11.960;2022-11-24T01:33:52;94150.28;;;6.88;100.00
23363;BME280;11853;48.080;11.960;2022-11-24T01:36:18;94147.47;;;6.89;100.00
23363;BME280;11853;48.080;11.960;2022-11-24T01:38:44;94168.56;;;6.89;100.00
23363;BME280;11853;48.080;11.960;2022-11-24T01:41:12;94152.75;;;6.89;100.00
23363;BME280;11853;48.080;11.960;2022-11-24T01:43:39;94160.00;;;6.87;100.00
23363;BME280;11853;48.080;11.960;2022-11-24T01:46:29;94173.31;;;6.86;100.00
23363;BME280;11853;48.080;11.960;2022-11-24T01:51:35;94189.66;;;6.89;100.00
23363;BME280;11853;48.080;11.960;2022-11-24T01:54:07;94191.63;;;6.87;100.00
23363;BME280;11853;48.080;11.960;2022-11-24T01:56:34;94178.88;;;6.83;100.00
23363;BME280;11853;48.080;11.960;2022-11-24T01:59:02;94186.94;;;6.81;100.00
23363;BME280;11853;48.080;11.960;2022-11-24T02:01:29;94188.88;;;6.79;100.00
23363;BME280;11853;48.080;11.960;2022-11-24T02:03:56;94197.09;;;6.76;100.00
23363;BME280;11853;48.080;11.960;2022-11-24T02:06:26;94193.34;;;6.69;100.00
23363;BME280;11853;48.080;11.960;2022-11-24T02:08:57;94189.59;;;6.71;100.00
23363;BME280;11853;48.080;11.960;2022-11-24T02:11:27;94205.00;;;6.76;100.00
23363;BME280;11853;48.080;11.960;2022-11-24T02:13:56;94210.84;;;6.70;100.00
23363;BME280;11853;48.080;11.960;2022-11-24T02:16:21;94212.78;;;6.68;100.00
23363;BME280;11853;48.080;11.960;2022-11-24T02:18:47;94216.25;;;6.68;100.00
23363;BME280;11853;48.080;11.960;2022-11-24T02:21:14;94218.06;;;6.68;100.00
23363;BME280;11853;48.080;11.960;2022-11-24T02:28:55;94235.28;;;6.62;100.00
23363;BME280;11853;48.080;11.960;2022-11-24T02:31:21;94230.03;;;6.62;100.00
23363;BME280;11853;48.080;11.960;2022-11-24T02:33:48;94237.09;;;6.62;100.00
23363;BME280;11853;48.080;11.960;2022-11-24T02:36:14;94231.41;;;6.57;100.00
23363;BME280;11853;48.080;11.960;2022-11-24T02:38:40;94228.66;;;6.58;100.00
23363;BME280;11853;48.080;11.960;2022-11-24T02:41:09;94239.47;;;6.55;100.00
23363;BME280;11853;48.080;11.960;2022-11-24T02:43:40;94243.31;;;6.61;100.00
23363;BME280;11853;48.080;11.960;2022-11-24T02:46:06;94249.97;;;6.65;100.00
23363;BME280;11853;48.080;11.960;2022-11-24T02:48:33;94260.66;;;6.63;100.00
23363;BME280;11853;48.080;11.960;2022-11-24T02:50:59;94257.59;;;6.68;100.00
23363;BME280;11853;48.080;11.960;2022-11-24T02:53:24;94256.31;;;6.72;100.00
23363;BME280;11853;48.080;11.960;2022-11-24T02:55:50;94265.22;;;6.71;100.00
23363;BME280;11853;48.080;11.960;2022-11-24T02:58:15;94258.28;;;6.70;100.00
23363;BME280;11853;48.080;11.960;2022-11-24T03:00:41;94263.56;;;6.70;100.00
23363;BME280;11853;48.080;11.960;2022-11-24T03:03:06;94270.63;;;6.69;100.00
23363;BME280;11853;48.080;11.960;2022-11-24T03:05:32;94270.50;;;6.71;100.00
23363;BME280;11853;48.080;11.960;2022-11-24T03:07:57;94270.19;;;6.74;100.00
23363;BME280;11853;48.080;11.960;2022-11-24T03:10:23;94267.84;;;6.71;100.00
23363;BME280;11853;48.080;11.960;2022-11-24T03:12:49;94273.00;;;6.72;100.00
23363;BME280;11853;48.080;11.960;2022-11-24T03:15:14;94267.16;;;6.69;100.00
23363;BME280;11853;48.080;11.960;2022-11-24T03:17:40;94268.56;;;6.73;100.00
23363;BME280;11853;48.080;11.960;2022-11-24T03:20:06;94267.03;;;6.70;100.00
23363;BME280;11853;48.080;11.960;2022-11-24T03:22:32;94267.31;;;6.67;100.00
23363;BME280;11853;48.080;11.960;2022-11-24T03:24:57;94266.88;;;6.72;100.00
23363;BME280;11853;48.080;11.960;2022-11-24T03:27:23;94271.19;;;6.73;100.00
23363;BME280;11853;48.080;11.960;2022-11-24T03:29:49;94272.72;;;6.75;100.00
23363;BME280;11853;48.080;11.960;2022-11-24T03:32:14;94267.84;;;6.71;100.00
23363;BME280;11853;48.080;11.960;2022-11-24T03:34:40;94278.28;;;6.72;100.00
23363;BME280;11853;48.080;11.960;2022-11-24T03:37:05;94286.31;;;6.71;100.00
23363;BME280;11853;48.080;11.960;2022-11-24T03:39:31;94289.75;;;6.71;100.00
23363;BME280;11853;48.080;11.960;2022-11-24T03:41:57;94292.94;;;6.75;100.00
23363;BME280;11853;48.080;11.960;2022-11-24T03:44:22;94296.81;;;6.81;100.00
23363;BME280;11853;48.080;11.960;2022-11-24T03:46:48;94302.94;;;6.81;100.00
23363;BME280;11853;48.080;11.960;2022-11-24T03:49:15;94306.53;;;6.80;100.00
23363;BME280;11853;48.080;11.960;2022-11-24T03:51:40;94306.00;;;6.76;100.00
23363;BME280;11853;48.080;11.960;2022-11-24T03:54:06;94313.06;;;6.76;100.00
23363;BME280;11853;48.080;11.960;2022-11-24T03:56:31;94314.44;;;6.80;100.00
23363;BME280;11853;48.080;11.960;2022-11-24T03:58:57;94319.88;;;6.79;100.00
23363;BME280;11853;48.080;11.960;2022-11-24T04:01:22;94319.88;;;6.79;100.00
23363;BME280;11853;48.080;11.960;2022-11-24T04:03:48;94318.47;;;6.84;100.00
23363;BME280;11853;48.080;11.960;2022-11-24T04:06:13;94319.41;;;6.83;100.00
23363;BME280;11853;48.080;11.960;2022-11-24T04:08:39;94318.75;;;6.81;100.00
23363;BME280;11853;48.080;11.960;2022-11-24T04:11:05;94318.47;;;6.84;100.00
23363;BME280;11853;48.080;11.960;2022-11-24T04:13:31;94317.47;;;6.85;100.00
23363;BME280;11853;48.080;11.960;2022-11-24T04:15:56;94315.94;;;6.83;100.00
23363;BME280;11853;48.080;11.960;2022-11-24T04:18:22;94308.22;;;6.81;100.00
23363;BME280;11853;48.080;11.960;2022-11-24T04:20:49;94319.00;;;6.78;100.00
23363;BME280;11853;48.080;11.960;2022-11-24T04:23:15;94319.41;;;6.83;100.00
23363;BME280;11853;48.080;11.960;2022-11-24T04:25:40;94324.56;;;6.85;100.00
23363;BME280;11853;48.080;11.960;2022-11-24T04:28:08;94325.97;;;6.79;100.00
23363;BME280;11853;48.080;11.960;2022-11-24T04:30:34;94333.72;;;6.81;100.00
23363;BME280;11853;48.080;11.960;2022-11-24T04:33:00;94323.88;;;6.83;100.00
23363;BME280;11853;48.080;11.960;2022-11-24T04:35:26;94335.81;;;6.77;100.00
23363;BME280;11853;48.080;11.960;2022-11-24T04:37:52;94339.84;;;6.81;100.00
23363;BME280;11853;48.080;11.960;2022-11-24T04:40:18;94344.41;;;6.79;100.00
23363;BME280;11853;48.080;11.960;2022-11-24T04:46:09;94355.66;;;6.81;100.00
23363;BME280;11853;48.080;11.960;2022-11-24T04:48:35;94349.69;;;6.79;100.00
23363;BME280;11853;48.080;11.960;2022-11-24T04:51:04;94365.09;;;6.74;100.00
23363;BME280;11853;48.080;11.960;2022-11-24T04:53:30;94367.47;;;6.67;100.00
23363;BME280;11853;48.080;11.960;2022-11-24T04:55:55;94362.59;;;6.63;100.00
23363;BME280;11853;48.080;11.960;2022-11-24T04:58:49;94371.91;;;6.67;100.00
23363;BME280;11853;48.080;11.960;2022-11-24T05:01:14;94358.44;;;6.70;100.00
23363;BME280;11853;48.080;11.960;2022-11-24T05:03:40;94365.50;;;6.69;100.00
23363;BME280;11853;48.080;11.960;2022-11-24T05:06:05;94369.81;;;6.70;100.00
23363;BME280;11853;48.080;11.960;2022-11-24T05:08:33;94369.81;;;6.70;100.00
23363;BME280;11853;48.080;11.960;2022-11-24T05:11:06;94368.56;;;6.74;100.00
23363;BME280;11853;48.080;11.960;2022-11-24T05:13:32;94366.91;;;6.73;100.00
23363;BME280;11853;48.080;11.960;2022-11-24T05:15:57;94369.38;;;6.75;100.00
23363;BME280;11853;48.080;11.960;2022-11-24T05:18:24;94375.50;;;6.75;100.00
23363;BME280;11853;48.080;11.960;2022-11-24T05:20:50;94377.28;;;6.75;100.00
23363;BME280;11853;48.080;11.960;2022-11-24T05:23:15;94377.72;;;6.70;100.00
23363;BME280;11853;48.080;11.960;2022-11-24T05:25:41;94383.28;;;6.67;100.00
23363;BME280;11853;48.080;11.960;2022-11-24T05:28:07;94386.19;;;6.74;100.00
23363;BME280;11853;48.080;11.960;2022-11-24T05:30:36;94389.22;;;6.69;100.00
23363;BME280;11853;48.080;11.960;2022-11-24T05:33:14;94390.75;;;6.72;100.00
23363;BME280;11853;48.080;11.960;2022-11-24T05:35:48;94393.38;;;6.72;100.00
23363;BME280;11853;48.080;11.960;2022-11-24T05:38:15;94401.00;;;6.75;100.00
23363;BME280;11853;48.080;11.960;2022-11-24T05:40:41;94395.91;;;6.73;100.00
23363;BME280;11853;48.080;11.960;2022-11-24T05:43:15;94400.06;;;6.76;100.00
23363;BME280;11853;48.080;11.960;2022-11-24T05:45:41;94401.00;;;6.75;100.00
23363;BME280;11853;48.080;11.960;2022-11-24T05:48:09;94409.06;;;6.73;100.00
23363;BME280;11853;48.080;11.960;2022-11-24T05:50:35;94408.91;;;6.75;100.00
23363;BME280;11853;48.080;11.960;2022-11-24T05:53:06;94408.38;;;6.81;100.00
23363;BME280;11853;48.080;11.960;2022-11-24T05:55:32;94415.28;;;6.92;100.00
23363;BME280;11853;48.080;11.960;2022-11-24T05:57:59;94421.66;;;6.89;100.00
23363;BME280;11853;48.080;11.960;2022-11-24T06:00:25;94418.34;;;6.87;100.00
23363;BME280;11853;48.080;11.960;2022-11-24T06:02:51;94421.66;;;6.89;100.00
23363;BME280;11853;48.080;11.960;2022-11-24T06:05:17;94417.25;;;6.90;100.00
23363;BME280;11853;48.080;11.960;2022-11-24T06:07:42;94434.84;;;6.89;100.00
23363;BME280;11853;48.080;11.960;2022-11-24T06:10:08;94432.38;;;6.88;100.00
23363;BME280;11853;48.080;11.960;2022-11-24T06:12:34;94438.19;;;6.91;100.00
23363;BME280;11853;48.080;11.960;2022-11-24T06:15:00;94438.59;;;6.96;100.00
23363;BME280;11853;48.080;11.960;2022-11-24T06:17:26;94444.16;;;6.93;100.00
23363;BME280;11853;48.080;11.960;2022-11-24T06:19:52;94443.63;;;6.90;100.00
23363;BME280;11853;48.080;11.960;2022-11-24T06:22:17;94453.31;;;6.89;100.00
23363;BME280;11853;48.080;11.960;2022-11-24T06:24:44;94462.34;;;6.96;100.00
23363;BME280;11853;48.080;11.960;2022-11-24T06:27:10;94453.59;;;6.96;100.00
23363;BME280;11853;48.080;11.960;2022-11-24T06:29:37;94464.44;;;6.93;100.00
23363;BME280;11853;48.080;11.960;2022-11-24T06:32:03;94462.75;;;6.92;100.00
23363;BME280;11853;48.080;11.960;2022-11-24T06:34:28;94456.63;;;6.91;100.00
23363;BME280;11853;48.080;11.960;2022-11-24T06:36:54;94462.63;;;6.93;100.00
23363;BME280;11853;48.080;11.960;2022-11-24T06:39:19;94465.94;;;6.95;100.00
23363;BME280;11853;48.080;11.960;2022-11-24T06:41:45;94469.25;;;6.97;100.00
23363;BME280;11853;48.080;11.960;2022-11-24T06:44:11;94468.59;;;6.95;100.00
23363;BME280;11853;48.080;11.960;2022-11-24T06:46:36;94474.53;;;6.97;100.00
23363;BME280;11853;48.080;11.960;2022-11-24T06:49:02;94482.44;;;6.97;100.00
23363;BME280;11853;48.080;11.960;2022-11-24T06:51:28;94478.69;;;7.00;100.00
23363;BME280;11853;48.080;11.960;2022-11-24T06:53:53;94473.31;;;7.02;100.00
23363;BME280;11853;48.080;11.960;2022-11-24T06:56:20;94484.13;;;6.98;100.00
23363;BME280;11853;48.080;11.960;2022-11-24T06:58:48;94469.69;;;7.03;100.00
23363;BME280;11853;48.080;11.960;2022-11-24T07:01:19;94467.47;;;7.08;100.00
23363;BME280;11853;48.080;11.960;2022-11-24T07:03:45;94473.00;;;7.05;100.00
23363;BME280;11853;48.080;11.960;2022-11-24T07:06:13;94472.03;;;7.06;100.00
23363;BME280;11853;48.080;11.960;2022-11-24T07:08:38;94471.63;;;7.10;100.00
23363;BME280;11853;48.080;11.960;2022-11-24T07:11:09;94476.19;;;7.08;100.00
23363;BME280;11853;48.080;11.960;2022-11-24T07:13:35;94471.75;;;7.09;100.00
23363;BME280;11853;48.080;11.960;2022-11-24T07:16:18;94479.53;;;7.10;100.00
23363;BME280;11853;48.080;11.960;2022-11-24T07:18:45;94489.25;;;7.10;100.00
23363;BME280;11853;48.080;11.960;2022-11-24T07:21:11;94487.28;;;7.12;100.00
23363;BME280;11853;48.080;11.960;2022-11-24T07:23:37;94492.00;;;7.18;100.00
23363;BME280;11853;48.080;11.960;2022-11-24T07:26:06;94485.59;;;7.20;100.00
23363;BME280;11853;48.080;11.960;2022-11-24T07:28:33;94497.56;;;7.25;100.00
23363;BME280;11853;48.080;11.960;2022-11-24T07:31:06;94499.50;;;7.22;100.00
23363;BME280;11853;48.080;11.960;2022-11-24T07:33:33;94498.66;;;7.22;100.00
23363;BME280;11853;48.080;11.960;2022-11-24T07:35:59;94502.00;;;7.24;100.00
23363;BME280;11853;48.080;11.960;2022-11-24T07:38:25;94499.63;;;7.31;100.00
23363;BME280;11853;48.080;11.960;2022-11-24T07:40:50;94501.69;;;7.37;100.00
23363;BME280;11853;48.080;11.960;2022-11-24T07:43:16;94507.09;;;7.35;100.00
23363;BME280;11853;48.080;11.960;2022-11-24T07:45:41;94501.44;;;7.30;100.00
23363;BME280;11853;48.080;11.960;2022-11-24T07:48:07;94504.63;;;7.34;100.00
23363;BME280;11853;48.080;11.960;2022-11-24T07:50:34;94507.94;;;7.45;100.00
23363;BME280;11853;48.080;11.960;2022-11-24T07:53:02;94506.19;;;7.64;100.00
23363;BME280;11853;48.080;11.960;2022-11-24T07:55:28;94500.66;;;7.67;100.00
23363;BME280;11853;48.080;11.960;2022-11-24T07:57:57;94499.69;;;7.68;100.00
23363;BME280;11853;48.080;11.960;2022-11-24T08:00:23;94505.38;;;7.73;100.00
23363;BME280;11853;48.080;11.960;2022-11-24T08:02:48;94507.38;;;8.54;100.00
23363;BME280;11853;48.080;11.960;2022-11-24T08:05:14;94512.81;;;9.68;100.00
23363;BME280;11853;48.080;11.960;2022-11-24T08:07:39;94505.84;;;10.70;96.78
23363;BME280;11853;48.080;11.960;2022-11-24T08:10:05;94506.91;;;11.59;92.62
23363;BME280;11853;48.080;11.960;2022-11-24T08:12:31;94501.50;;;12.24;84.52
23363;BME280;11853;48.080;11.960;2022-11-24T08:14:56;94493.53;;;12.95;83.02
23363;BME280;11853;48.080;11.960;2022-11-24T08:17:28;94500.59;;;13.94;100.00
23363;BME280;11853;48.080;11.960;2022-11-24T08:19:54;94502.72;;;15.09;91.49
23363;BME280;11853;48.080;11.960;2022-11-24T08:22:20;94503.63;;;15.81;83.78
23363;BME280;11853;48.080;11.960;2022-11-24T08:24:46;94492.78;;;16.17;74.72
23363;BME280;11853;48.080;11.960;2022-11-24T08:27:14;94503.34;;;16.67;76.68
23363;BME280;11853;48.080;11.960;2022-11-24T08:29:41;94497.72;;;16.90;69.97
23363;BME280;11853;48.080;11.960;2022-11-24T08:32:07;94502.34;;;17.16;67.00
23363;BME280;11853;48.080;11.960;2022-11-24T08:34:32;94504.47;;;17.34;63.03
23363;BME280;11853;48.080;11.960;2022-11-24T08:36:58;94504.88;;;17.44;61.98
23363;BME280;11853;48.080;11.960;2022-11-24T08:39:24;94506.97;;;17.49;63.30
23363;BME280;11853;48.080;11.960;2022-11-24T08:41:49;94502.22;;;17.64;61.11
23363;BME280;11853;48.080;11.960;2022-11-24T08:44:15;94503.91;;;18.05;57.84
23363;BME280;11853;48.080;11.960;2022-11-24T08:46:43;94507.03;;;17.89;56.85
23363;BME280;11853;48.080;11.960;2022-11-24T08:49:09;94513.13;;;17.36;58.23
23363;BME280;11853;48.080;11.960;2022-11-24T08:51:35;94521.88;;;16.62;59.85
23363;BME280;11853;48.080;11.960;2022-11-24T08:54:00;94516.13;;;16.02;61.90
23363;BME280;11853;48.080;11.960;2022-11-24T08:56:29;94530.34;;;15.38;63.09
23363;BME280;11853;48.080;11.960;2022-11-24T08:58:55;94519.56;;;14.74;65.34
23363;BME280;11853;48.080;11.960;2022-11-24T09:01:21;94518.66;;;14.52;65.94
23363;BME280;11853;48.080;11.960;2022-11-24T09:03:48;94516.22;;;14.42;67.02
23363;BME280;11853;48.080;11.960;2022-11-24T09:06:14;94512.53;;;13.98;68.79
23363;BME280;11853;48.080;11.960;2022-11-24T09:08:40;94516.63;;;13.71;69.55
23363;BME280;11853;48.080;11.960;2022-11-24T09:11:09;94515.94;;;13.32;71.15
23363;BME280;11853;48.080;11.960;2022-11-24T09:13:36;94512.84;;;13.20;71.59
23363;BME280;11853;48.080;11.960;2022-11-24T09:16:13;94508.78;;;13.01;72.19
23363;BME280;11853;48.080;11.960;2022-11-24T09:18:39;94510.19;;;12.89;73.27
23363;BME280;11853;48.080;11.960;2022-11-24T09:21:11;94511.25;;;12.79;74.13
23363;BME280;11853;48.080;11.960;2022-11-24T09:23:37;94507.19;;;12.60;73.65
23363;BME280;11853;48.080;11.960;2022-11-24T09:26:11;94511.63;;;12.37;73.87
23363;BME280;11853;48.080;11.960;2022-11-24T09:28:37;94508.25;;;12.82;75.10
23363;BME280;11853;48.080;11.960;2022-11-24T09:31:06;94507.78;;;13.02;74.15
23363;BME280;11853;48.080;11.960;2022-11-24T09:33:32;94504.94;;;13.35;72.62
23363;BME280;11853;48.080;11.960;2022-11-24T09:35:58;94502.44;;;13.94;71.83
23363;BME280;11853;48.080;11.960;2022-11-24T09:38:24;94494.09;;;14.93;70.66
23363;BME280;11853;48.080;11.960;2022-11-24T09:40:51;94496.16;;;15.76;65.06
23363;BME280;11853;48.080;11.960;2022-11-24T09:43:25;94494.66;;;15.89;62.42
23363;BME280;11853;48.080;11.960;2022-11-24T09:48:46;94501.69;;;14.74;64.31
23363;BME280;11853;48.080;11.960;2022-11-24T09:51:13;94506.38;;;13.98;66.57
23363;BME280;11853;48.080;11.960;2022-11-24T09:53:47;94500.78;;;13.55;67.80
23363;BME280;11853;48.080;11.960;2022-11-24T09:56:22;94514.03;;;13.17;68.86
23363;BME280;11853;48.080;11.960;2022-11-24T09:58:53;94509.16;;;12.98;70.85
23363;BME280;11853;48.080;11.960;2022-11-24T10:01:28;94512.81;;;12.97;71.27
23363;BME280;11853;48.080;11.960;2022-11-24T10:03:55;94509.34;;;12.96;72.06
23363;BME280;11853;48.080;11.960;2022-11-24T10:06:42;94511.78;;;13.52;70.91
23363;BME280;11853;48.080;11.960;2022-11-24T10:25:25;94502.31;;;13.26;69.55
23363;BME280;11853;48.080;11.960;2022-11-24T10:27:59;94500.53;;;13.42;69.49
23363;BME280;11853;48.080;11.960;2022-11-24T10:30:26;94504.31;;;13.47;68.53
23363;BME280;11853;48.080;11.960;2022-11-24T10:32:59;94500.31;;;13.28;69.45
23363;BME280;11853;48.080;11.960;2022-11-24T10:40:55;94501.09;;;12.44;71.51
23363;BME280;11853;48.080;11.960;2022-11-24T10:43:21;94514.63;;;12.26;72.91
23363;BME280;11853;48.080;11.960;2022-11-24T10:45:47;94510.19;;;12.10;73.71
23363;BME280;11853;48.080;11.960;2022-11-24T10:48:23;94516.72;;;11.83;73.78
23363;BME280;11853;48.080;11.960;2022-11-24T10:50:52;94527.69;;;11.39;76.46
23363;BME280;11853;48.080;11.960;2022-11-24T10:53:27;94509.75;;;11.49;77.53
23363;BME280;11853;48.080;11.960;2022-11-24T10:58:29;94539.97;;;11.23;81.92
23363;BME280;11853;48.080;11.960;2022-11-24T11:04:11;94551.03;;;10.94;85.93
23363;BME280;11853;48.080;11.960;2022-11-24T11:06:42;94557.81;;;10.89;87.48
23363;BME280;11853;48.080;11.960;2022-11-24T11:11:35;94557.66;;;10.82;90.17
23363;BME280;11853;48.080;11.960;2022-11-24T11:14:06;94563.28;;;10.79;91.30
23363;BME280;11853;48.080;11.960;2022-11-24T11:16:49;94568.38;;;10.72;90.99
23363;BME280;11853;48.080;11.960;2022-11-24T11:24:33;94574.84;;;10.09;98.99
23363;BME280;11853;48.080;11.960;2022-11-24T11:29:44;94574.97;;;10.00;99.99
23363;BME280;11853;48.080;11.960;2022-11-24T11:32:23;94569.41;;;10.11;99.72
23363;BME280;11853;48.080;11.960;2022-11-24T11:34:51;94573.25;;;10.17;97.90
23363;BME280;11853;48.080;11.960;2022-11-24T11:37:19;94580.09;;;10.01;96.82
23363;BME280;11853;48.080;11.960;2022-11-24T11:39:50;94579.56;;;9.98;96.14
23363;BME280;11853;48.080;11.960;2022-11-24T11:42:32;94581.44;;;9.79;96.19
23363;BME280;11853;48.080;11.960;2022-11-24T11:45:11;94574.25;;;9.72;96.89
23363;BME280;11853;48.080;11.960;2022-11-24T11:50:16;94571.53;;;9.63;98.66
23363;BME280;11853;48.080;11.960;2022-11-24T12:07:09;94580.19;;;9.30;100.00
23363;BME280;11853;48.080;11.960;2022-11-24T12:15:16;94587.00;;;9.14;100.00
23363;BME280;11853;48.080;11.960;2022-11-24T12:17:56;94592.59;;;9.11;100.00
23363;BME280;11853;48.080;11.960;2022-11-24T12:42:49;94617.00;;;8.87;100.00
23363;BME280;11853;48.080;11.960;2022-11-24T12:47:58;94619.91;;;8.84;100.00
23363;BME280;11853;48.080;11.960;2022-11-24T12:50:29;94615.19;;;8.88;100.00
23363;BME280;11853;48.080;11.960;2022-11-24T12:53:27;94609.44;;;8.92;100.00
23363;BME280;11853;48.080;11.960;2022-11-24T12:55:57;94615.28;;;8.96;100.00
23363;BME280;11853;48.080;11.960;2022-11-24T13:01:37;94618.06;;;8.94;100.00
23363;BME280;11853;48.080;11.960;2022-11-24T13:06:52;94620.81;;;8.75;100.00
23363;BME280;11853;48.080;11.960;2022-11-24T13:09:20;94629.31;;;8.78;100.00
23363;BME280;11853;48.080;11.960;2022-11-24T13:11:48;94629.66;;;8.84;100.00
23363;BME280;11853;48.080;11.960;2022-11-24T13:14:15;94636.03;;;8.91;100.00
23363;BME280;11853;48.080;11.960;2022-11-24T13:16:53;94645.94;;;8.89;100.00
23363;BME280;11853;48.080;11.960;2022-11-24T13:19:33;94642.34;;;8.80;100.00
23363;BME280;11853;48.080;11.960;2022-11-24T13:22:08;94635.56;;;8.77;100.00
23363;BME280;11853;48.080;11.960;2022-11-24T13:24:38;94644.59;;;8.75;100.00
23363;BME280;11853;48.080;11.960;2022-11-24T13:29:52;94638.19;;;8.77;100.00
23363;BME280;11853;48.080;11.960;2022-11-24T13:42:20;94657.34;;;8.89;100.00
23363;BME280;11853;48.080;11.960;2022-11-24T13:45:03;94652.41;;;8.76;100.00
23363;BME280;11853;48.080;11.960;2022-11-24T13:47:37;94644.13;;;8.62;100.00
23363;BME280;11853;48.080;11.960;2022-11-24T13:50:08;94645.91;;;8.61;100.00
23363;BME280;11853;48.080;11.960;2022-11-24T13:52:39;94653.06;;;8.51;100.00
23363;BME280;11853;48.080;11.960;2022-11-24T13:57:43;94659.22;;;8.42;100.00
23363;BME280;11853;48.080;11.960;2022-11-24T14:02:52;94662.16;;;8.39;100.00
23363;BME280;11853;48.080;11.960;2022-11-24T14:05:22;94659.53;;;8.39;100.00
23363;BME280;11853;48.080;11.960;2022-11-24T14:07:52;94658.94;;;8.45;100.00
23363;BME280;11853;48.080;11.960;2022-11-24T14:10:29;94654.72;;;8.52;100.00
23363;BME280;11853;48.080;11.960;2022-11-24T14:16:31;94658.06;;;8.54;100.00
23363;BME280;11853;48.080;11.960;2022-11-24T14:18:50;94661.00;;;8.51;100.00
23363;BME280;11853;48.080;11.960;2022-11-24T14:23:53;94665.88;;;8.46;100.00
23363;BME280;11853;48.080;11.960;2022-11-24T14:26:30;94666.88;;;8.45;100.00
23363;BME280;11853;48.080;11.960;2022-11-24T14:29:13;94663.09;;;8.38;100.00
23363;BME280;11853;48.080;11.960;2022-11-24T14:31:40;94669.66;;;8.33;100.00
23363;BME280;11853;48.080;11.960;2022-11-24T14:34:16;94654.50;;;8.26;100.00
23363;BME280;11853;48.080;11.960;2022-11-24T14:36:43;94662.31;;;8.27;100.00
23363;BME280;11853;48.080;11.960;2022-11-24T14:39:14;94669.38;;;8.27;100.00
23363;BME280;11853;48.080;11.960;2022-11-24T14:41:51;94666.19;;;8.23;100.00
23363;BME280;11853;48.080;11.960;2022-11-24T14:44:23;94665.78;;;8.18;100.00
23363;BME280;11853;48.080;11.960;2022-11-24T14:46:50;94666.63;;;8.19;100.00
23363;BME280;11853;48.080;11.960;2022-11-24T14:49:24;94676.78;;;8.13;100.00
23363;BME280;11853;48.080;11.960;2022-11-24T14:51:55;94683.72;;;8.15;100.00
23363;BME280;11853;48.080;11.960;2022-11-24T14:54:22;94686.81;;;8.10;100.00
23363;BME280;11853;48.080;11.960;2022-11-24T14:57:31;94698.34;;;8.09;100.00
23363;BME280;11853;48.080;11.960;2022-11-24T15:05:24;94692.50;;;8.15;100.00
23363;BME280;11853;48.080;11.960;2022-11-24T15:08:00;94699.47;;;8.16;100.00
23363;BME280;11853;48.080;11.960;2022-11-24T15:10:36;94700.41;;;8.15;100.00
23363;BME280;11853;48.080;11.960;2022-11-24T15:13:05;94708.22;;;8.17;100.00